Time;durP1;ratioP1;P1;durP2;ratioP2;P2;SDS_P1;SDS_P2;PMS_P1;PMS_P2;Temp;Humidity;BMP_temperature;BMP_pressure;BME280_temperature;BME280_humidity;BME280_pressure;Samples;Min_cycle;Max_cycle;Signal;HPM_P1;HPM_P2
2022/04/02 00:00:23;;;;;;;4.18;1.70;;;;;;;10.31;42.62;99181.25;5023520;28;20042;-85
2022/04/02 00:02:50;;;;;;;3.20;1.85;;;;;;;10.69;41.95;99253.13;5040420;28;20058;-85
2022/04/02 00:05:17;;;;;;;4.38;1.50;;;;;;;11.05;41.34;99296.00;5024003;28;20080;-84
2022/04/02 00:07:44;;;;;;;5.85;1.77;;;;;;;11.67;41.42;99374.94;5018732;28;20046;-84
2022/04/02 00:10:11;;;;;;;4.93;1.65;;;;;;;11.62;40.24;99360.53;5009570;28;20180;-84
2022/04/02 00:12:39;;;;;;;4.32;1.90;;;;;;;11.58;40.20;99354.75;5009699;28;20133;-85
2022/04/02 00:15:06;;;;;;;4.15;1.60;;;;;;;11.26;40.85;99332.63;4991259;28;20101;-85
2022/04/02 00:17:33;;;;;;;3.20;1.52;;;;;;;10.66;41.12;99241.03;4989628;28;20078;-85
2022/04/02 00:20:00;;;;;;;4.47;1.63;;;;;;;10.40;40.58;99204.09;5005422;28;20073;-85
2022/04/02 00:22:26;;;;;;;10.57;1.98;;;;;;;9.99;40.69;99106.03;4990553;28;20061;-85
2022/04/02 00:24:53;;;;;;;4.80;1.92;;;;;;;11.40;39.99;99332.88;4989689;28;20081;-84
2022/04/02 00:27:20;;;;;;;5.63;1.98;;;;;;;11.36;40.46;99360.78;4990720;28;20521;-84
2022/04/02 00:29:46;;;;;;;4.90;2.10;;;;;;;10.08;40.41;99138.69;4988558;28;20456;-83
2022/04/02 00:32:13;;;;;;;2.95;1.35;;;;;;;10.36;39.93;99178.91;4989728;28;20070;-84
2022/04/02 00:34:40;;;;;;;4.53;1.73;;;;;;;11.38;40.02;99330.41;4988679;28;20680;-86
2022/04/02 00:37:06;;;;;;;7.53;1.45;;;;;;;10.56;41.01;99242.19;4988319;28;20451;-85
2022/04/02 00:39:33;;;;;;;3.03;1.15;;;;;;;10.16;41.61;99188.22;4992845;28;20042;-85
2022/04/02 00:42:00;;;;;;;4.45;1.80;;;;;;;10.73;42.09;99296.94;5009357;28;20550;-86
2022/04/02 00:44:27;;;;;;;4.93;1.73;;;;;;;11.07;41.20;99327.72;5007928;28;20062;-84
2022/04/02 00:46:54;;;;;;;5.22;1.67;;;;;;;10.14;41.35;99176.94;5024384;28;20065;-82
2022/04/02 00:49:21;;;;;;;6.65;1.60;;;;;;;10.37;41.02;99227.50;5024578;28;20133;-84
2022/04/02 00:51:49;;;;;;;4.40;1.42;;;;;;;10.87;41.46;99328.09;5009355;28;20462;-84
2022/04/02 00:54:18;;;;;;;4.10;1.85;;;;;;;10.95;41.60;99364.41;5008339;28;20112;-85
2022/04/02 00:56:45;;;;;;;5.93;1.98;;;;;;;9.92;42.42;99181.94;5008134;28;20419;-84
2022/04/02 00:59:12;;;;;;;3.88;1.40;;;;;;;10.88;41.66;99313.81;5024151;28;20514;-84
2022/04/02 01:01:40;;;;;;;3.13;1.40;;;;;;;11.18;41.35;99351.22;5023971;28;20086;-84
2022/04/02 01:04:07;;;;;;;3.08;1.30;;;;;;;10.75;41.07;99300.22;5007177;28;20054;-84
2022/04/02 01:06:35;;;;;;;4.00;1.35;;;;;;;10.54;41.76;99276.88;5008816;28;20053;-84
2022/04/02 01:09:02;;;;;;;1.88;1.23;;;;;;;10.75;42.10;99302.88;5007051;28;20496;-84
2022/04/02 01:11:41;;;;;;;5.45;1.50;;;;;;;10.94;41.83;99330.88;5007177;28;20590;-85
2022/04/02 01:14:10;;;;;;;5.13;1.30;;;;;;;10.40;42.40;99265.13;4995979;28;20062;-84
2022/04/02 01:16:37;;;;;;;4.18;1.27;;;;;;;10.87;42.98;99340.50;4987866;28;20050;-84
2022/04/02 01:19:05;;;;;;;2.72;1.50;;;;;;;11.03;42.34;99344.97;4989093;28;20073;-84
2022/04/02 01:21:32;;;;;;;2.78;1.45;;;;;;;10.50;42.85;99298.63;5003589;28;20133;-83
2022/04/02 01:24:00;;;;;;;3.50;1.52;;;;;;;10.56;42.61;99311.19;4987315;28;20488;-84
2022/04/02 01:26:27;;;;;;;4.68;1.90;;;;;;;10.33;43.05;99289.84;4987284;28;20042;-84
2022/04/02 01:28:56;;;;;;;3.22;1.27;;;;;;;9.76;44.02;99213.75;4987719;28;20132;-84
2022/04/02 01:31:24;;;;;;;4.35;1.35;;;;;;;9.66;44.19;99203.31;4988426;28;20081;-84
2022/04/02 01:33:53;;;;;;;3.75;1.63;;;;;;;10.01;44.06;99255.16;4987553;28;20066;-85
2022/04/02 01:36:20;;;;;;;1.92;1.35;;;;;;;10.13;44.13;99253.03;4987542;28;20347;-84
2022/04/02 01:38:47;;;;;;;5.25;1.60;;;;;;;9.98;44.16;99254.69;4988493;28;20448;-85
2022/04/02 01:41:15;;;;;;;3.42;1.50;;;;;;;10.41;44.50;99335.78;5022159;28;20042;-83
2022/04/02 01:43:43;;;;;;;3.70;1.45;;;;;;;10.04;45.12;99302.56;5006733;28;20492;-85
2022/04/02 01:46:10;;;;;;;3.28;1.50;;;;;;;10.10;44.17;99309.03;5006410;28;20314;-85
2022/04/02 01:48:38;;;;;;;2.90;1.58;;;;;;;10.06;44.27;99274.06;5007159;28;20053;-85
2022/04/02 01:51:05;;;;;;;4.57;1.30;;;;;;;9.29;44.56;99186.03;5023530;28;20488;-84
2022/04/02 01:53:32;;;;;;;7.55;1.50;;;;;;;10.32;44.99;99341.25;5006983;28;20050;-84
2022/04/02 01:55:59;;;;;;;2.03;1.23;;;;;;;10.06;44.80;99313.84;5008077;28;20554;-83
2022/04/02 01:58:27;;;;;;;3.28;1.30;;;;;;;10.02;45.52;99309.88;5022757;28;20159;-85
2022/04/02 02:00:53;;;;;;;2.58;1.20;;;;;;;9.32;45.40;99195.47;5006681;28;20066;-84
2022/04/02 02:03:21;;;;;;;2.13;1.08;;;;;;;10.37;45.69;99373.41;5005876;28;20089;-84
2022/04/02 02:05:48;;;;;;;2.90;1.20;;;;;;;10.38;45.57;99373.22;5006808;28;20057;-83
2022/04/02 02:08:15;;;;;;;2.15;0.88;;;;;;;10.33;45.30;99364.94;5007821;28;20073;-83
2022/04/02 02:10:41;;;;;;;2.30;1.10;;;;;;;10.09;44.91;99315.31;5006300;28;20456;-84
2022/04/02 02:13:08;;;;;;;3.80;0.88;;;;;;;10.08;44.75;99281.03;5004174;28;20457;-84
2022/04/02 02:15:35;;;;;;;6.80;1.13;;;;;;;10.56;44.86;99353.66;4986699;28;20116;-85
2022/04/02 02:18:01;;;;;;;2.13;1.02;;;;;;;10.24;44.55;99267.75;5002810;28;20042;-85
2022/04/02 02:20:28;;;;;;;2.13;1.02;;;;;;;10.63;44.88;99352.84;4987314;28;20488;-85
2022/04/02 02:22:55;;;;;;;1.48;0.93;;;;;;;10.03;44.60;99263.78;4985903;28;20058;-84
2022/04/02 02:25:22;;;;;;;2.38;1.40;;;;;;;10.45;45.23;99363.63;4985435;28;20518;-84
2022/04/02 02:27:49;;;;;;;4.55;0.98;;;;;;;9.47;45.45;99207.09;4986134;28;20488;-84
2022/04/02 02:30:17;;;;;;;1.40;1.10;;;;;;;10.35;45.65;99347.03;4985777;28;20483;-83
2022/04/02 02:32:45;;;;;;;2.97;0.90;;;;;;;10.08;46.60;99350.81;5002432;28;20504;-83
2022/04/02 02:38:08;;;;;;;3.28;1.10;;;;;;;9.79;47.05;99312.31;4987850;28;20109;-84
2022/04/02 02:40:36;;;;;;;1.70;1.00;;;;;;;9.82;47.01;99351.72;5000080;28;20052;-83
2022/04/02 02:43:04;;;;;;;2.13;0.85;;;;;;;8.88;47.58;99200.97;5007561;28;20561;-84
2022/04/02 02:45:32;;;;;;;2.03;0.95;;;;;;;8.55;48.02;99155.88;5007488;28;20354;-83
2022/04/02 02:48:00;;;;;;;4.10;1.20;;;;;;;8.55;48.10;99172.56;5005677;28;20269;-84
2022/04/02 02:50:32;;;;;;;2.45;1.00;;;;;;;9.16;47.67;99275.72;5006066;28;20151;-83
2022/04/02 02:52:59;;;;;;;5.93;1.20;;;;;;;8.42;47.76;99155.47;5022296;28;20081;-84
2022/04/02 02:55:26;;;;;;;3.30;1.20;;;;;;;9.55;48.12;99328.16;5005651;28;20131;-85
2022/04/02 02:57:53;;;;;;;1.83;1.00;;;;;;;9.18;48.41;99269.25;5005568;28;20042;-83
2022/04/02 03:00:19;;;;;;;2.70;1.02;;;;;;;9.40;47.88;99330.59;5022204;28;20050;-85
2022/04/02 03:02:46;;;;;;;1.75;1.00;;;;;;;9.32;48.11;99314.66;5005072;28;20093;-84
2022/04/02 03:05:15;;;;;;;3.65;1.10;;;;;;;9.43;48.65;99340.03;5021621;28;20136;-82
2022/04/02 03:07:51;;;;;;;1.65;1.08;;;;;;;9.61;47.53;99354.84;5004945;28;20495;-84
2022/04/02 03:10:19;;;;;;;1.75;0.93;;;;;;;8.96;48.78;99267.19;5005654;28;20472;-83
2022/04/02 03:12:47;;;;;;;2.55;1.05;;;;;;;9.37;48.63;99349.47;5022011;28;20484;-83
2022/04/02 03:15:18;;;;;;;1.50;0.90;;;;;;;9.39;49.12;99376.59;5002554;28;20090;-83
2022/04/02 03:17:46;;;;;;;2.13;1.00;;;;;;;9.47;48.79;99366.03;4986574;28;20771;-83
2022/04/02 03:20:14;;;;;;;2.67;1.33;;;;;;;9.53;48.09;99352.16;4991123;28;20499;-84
2022/04/02 03:22:43;;;;;;;3.75;1.08;;;;;;;9.11;48.22;99272.72;4989851;28;20526;-84
2022/04/02 03:25:12;;;;;;;3.38;1.00;;;;;;;9.81;47.29;99350.09;4989648;28;20463;-84
2022/04/02 03:27:40;;;;;;;1.90;1.20;;;;;;;9.37;47.92;99293.84;4989669;28;20494;-84
2022/04/02 03:30:09;;;;;;;2.10;1.08;;;;;;;9.79;47.89;99361.84;5005673;28;20419;-85
2022/04/02 03:32:36;;;;;;;2.88;0.93;;;;;;;9.35;48.45;99309.06;5005613;28;20057;-84
2022/04/02 03:35:04;;;;;;;3.97;1.30;;;;;;;9.77;47.79;99353.22;4989887;28;20511;-84
2022/04/02 03:37:31;;;;;;;2.13;0.93;;;;;;;9.57;48.46;99340.25;4989205;28;20054;-84
2022/04/02 03:39:58;;;;;;;1.67;1.08;;;;;;;9.41;47.70;99300.44;4997270;28;20492;-84
2022/04/02 03:42:25;;;;;;;1.52;1.00;;;;;;;9.61;48.75;99343.38;5009914;28;20070;-83
2022/04/02 03:44:52;;;;;;;5.35;1.42;;;;;;;9.01;47.26;99230.50;5008940;28;20281;-83
2022/04/02 03:47:22;;;;;;;5.32;1.42;;;;;;;9.64;47.74;99327.19;5008489;28;20049;-84
2022/04/02 03:49:50;;;;;;;3.42;1.17;;;;;;;9.71;47.75;99345.91;5008551;28;20662;-84
2022/04/02 03:52:18;;;;;;;4.85;1.35;;;;;;;9.75;47.23;99350.72;5009770;28;20491;-84
2022/04/02 03:54:45;;;;;;;1.83;1.20;;;;;;;9.68;47.71;99338.28;5008331;28;20054;-85
2022/04/02 03:57:13;;;;;;;4.68;1.40;;;;;;;9.58;48.40;99354.31;5025237;28;20444;-84
2022/04/02 03:59:43;;;;;;;2.22;1.20;;;;;;;9.53;47.63;99320.34;5008501;28;20570;-84
2022/04/02 04:02:13;;;;;;;4.18;1.60;;;;;;;9.49;47.42;99312.88;5009958;28;20484;-84
2022/04/02 04:04:40;;;;;;;1.67;1.13;;;;;;;9.44;47.95;99323.13;5008556;28;20053;-82
2022/04/02 04:07:08;;;;;;;3.97;1.48;;;;;;;8.81;47.71;99215.81;5025638;28;20085;-84
2022/04/02 04:09:40;;;;;;;1.33;1.00;;;;;;;8.00;47.96;99103.34;5010362;28;20060;-84
2022/04/02 04:12:08;;;;;;;;;;;;;;;9.51;47.61;99337.41;5014298;28;20054;-84
2022/04/02 04:14:34;;;;;;;2.63;1.20;;;;;;;7.85;47.52;99061.63;5000739;28;19953;-84
2022/04/02 04:17:01;;;;;;;2.47;1.10;;;;;;;9.49;47.66;99348.19;4992831;28;20476;-85
2022/04/02 04:19:28;;;;;;;2.17;1.10;;;;;;;9.14;46.75;99273.22;4988932;28;20081;-83
2022/04/02 04:21:55;;;;;;;1.67;1.10;;;;;;;9.07;46.32;99240.41;4988426;28;20428;-84
2022/04/02 04:24:22;;;;;;;0.93;0.80;;;;;;;8.60;46.21;99174.75;5005254;28;20066;-84
2022/04/02 04:26:49;;;;;;;2.05;1.00;;;;;;;9.53;47.24;99353.97;4988256;28;20077;-85
2022/04/02 04:29:16;;;;;;;3.60;1.33;;;;;;;8.74;47.20;99213.84;5004418;28;20109;-84
2022/04/02 04:31:43;;;;;;;5.20;0.95;;;;;;;8.84;47.37;99255.22;4988552;28;20109;-84
2022/04/02 04:34:09;;;;;;;2.83;0.90;;;;;;;9.37;47.55;99357.41;4988710;28;20046;-84
2022/04/02 04:36:36;;;;;;;2.55;0.90;;;;;;;9.23;48.16;99326.22;4989138;28;20516;-83
2022/04/02 04:39:05;;;;;;;2.33;1.20;;;;;;;8.95;48.04;99305.22;4988661;28;20141;-85
2022/04/02 04:41:32;;;;;;;2.35;1.23;;;;;;;8.99;48.37;99322.47;5007743;28;20054;-84
2022/04/02 04:43:59;;;;;;;2.38;1.30;;;;;;;9.19;48.80;99366.22;5007974;28;20435;-84
2022/04/02 04:46:26;;;;;;;3.15;1.15;;;;;;;9.17;48.56;99365.59;5007517;28;20145;-83
2022/04/02 04:48:53;;;;;;;3.17;1.30;;;;;;;8.89;48.80;99341.09;5007565;28;20061;-83
2022/04/02 04:51:23;;;;;;;1.98;1.08;;;;;;;8.59;49.24;99325.66;5007471;28;20050;-83
2022/04/02 04:53:50;;;;;;;2.03;1.25;;;;;;;8.93;49.20;99374.22;5007224;28;20129;-83
2022/04/02 04:56:17;;;;;;;3.22;0.90;;;;;;;8.59;49.10;99315.91;5024190;28;20483;-85
2022/04/02 04:58:44;;;;;;;2.83;1.17;;;;;;;9.01;48.97;99378.72;5007515;28;20494;-85
2022/04/02 05:01:12;;;;;;;6.70;1.38;;;;;;;8.73;48.76;99318.00;5007285;28;20706;-82
2022/04/02 05:03:40;;;;;;;3.75;1.23;;;;;;;9.11;48.44;99371.50;5008205;28;20058;-83
2022/04/02 05:06:11;;;;;;;2.92;1.42;;;;;;;8.95;48.84;99374.03;5007022;28;20053;-83
2022/04/02 05:08:38;;;;;;;5.38;1.52;;;;;;;8.89;48.78;99388.72;5008397;28;20350;-84
2022/04/02 05:11:05;;;;;;;2.97;1.17;;;;;;;8.54;49.36;99339.34;5007138;28;20046;-84
2022/04/02 05:13:32;;;;;;;4.43;1.00;;;;;;;8.86;49.49;99401.44;5016898;28;20046;-83
2022/04/02 05:15:59;;;;;;;1.90;0.98;;;;;;;8.52;49.33;99351.94;5003112;28;20081;-84
2022/04/02 05:18:26;;;;;;;2.65;0.90;;;;;;;8.81;49.34;99401.91;4987856;28;20101;-83
2022/04/02 05:20:53;;;;;;;2.25;1.00;;;;;;;8.56;48.94;99343.50;4987784;28;20503;-86
2022/04/02 05:23:20;;;;;;;2.92;1.52;;;;;;;8.82;49.53;99413.34;4990320;28;20139;-84
2022/04/02 05:25:47;;;;;;;4.07;1.40;;;;;;;8.27;49.40;99349.03;4993163;28;20077;-85
2022/04/02 05:28:13;;;;;;;4.75;1.50;;;;;;;7.82;49.65;99262.75;4992007;28;20117;-85
2022/04/02 05:30:40;;;;;;;1.42;1.23;;;;;;;8.75;49.37;99426.34;4987797;28;20150;-84
2022/04/02 05:33:07;;;;;;;1.95;1.30;;;;;;;8.41;50.29;99371.50;4989144;28;20108;-85
2022/04/02 05:35:54;;;;;;;3.58;1.33;;;;;;;8.70;49.84;99395.03;4998725;28;20165;-84
2022/04/02 05:38:21;;;;;;;3.13;1.10;;;;;;;8.64;48.76;99376.31;4985527;28;20070;-84
2022/04/02 05:40:47;;;;;;;4.85;1.60;;;;;;;9.05;48.86;99440.13;4999203;28;20127;-85
2022/04/02 05:43:14;;;;;;;6.18;1.48;;;;;;;9.05;48.25;99395.94;4986352;28;20137;-84
2022/04/02 05:45:41;;;;;;;3.25;1.10;;;;;;;9.17;48.19;99405.31;4973679;28;20053;-82
2022/04/02 05:48:08;;;;;;;3.53;0.95;;;;;;;8.99;47.46;99388.63;4983971;28;20056;-84
2022/04/02 05:50:34;;;;;;;6.47;1.33;;;;;;;9.19;47.89;99423.66;4991992;28;20064;-84
2022/04/02 05:53:04;;;;;;;3.03;1.13;;;;;;;9.16;47.74;99394.84;4992524;28;20054;-84
2022/04/02 05:55:32;;;;;;;1.95;1.00;;;;;;;9.52;46.54;99406.13;5000988;28;20061;-83
2022/04/02 05:57:59;;;;;;;1.55;0.90;;;;;;;9.39;46.88;99395.13;4986225;28;20489;-84
2022/04/02 06:00:27;;;;;;;1.85;0.95;;;;;;;9.11;46.65;99366.19;5001560;28;20097;-84
2022/04/02 06:03:03;;;;;;;1.50;0.93;;;;;;;9.27;47.14;99414.94;5000536;28;20320;-84
2022/04/02 06:05:30;;;;;;;1.30;1.00;;;;;;;9.34;47.27;99421.25;4984984;28;20081;-85
2022/04/02 06:07:56;;;;;;;1.60;1.20;;;;;;;9.26;47.00;99389.44;4986704;28;20085;-84
2022/04/02 06:10:23;;;;;;;3.55;1.27;;;;;;;9.32;47.23;99399.41;5000984;28;20504;-84
2022/04/02 06:12:51;;;;;;;1.98;0.93;;;;;;;9.43;46.61;99399.13;4986322;28;20169;-85
2022/04/02 06:15:19;;;;;;;2.15;0.90;;;;;;;9.87;45.75;99425.47;5006353;28;20046;-84
2022/04/02 06:17:45;;;;;;;3.17;1.17;;;;;;;9.40;46.12;99375.63;5022033;28;20072;-84
2022/04/02 06:20:13;;;;;;;2.00;1.25;;;;;;;8.94;46.65;99314.16;5009672;28;20135;-85
2022/04/02 06:22:40;;;;;;;2.38;0.98;;;;;;;8.99;46.84;99333.03;5007986;28;20053;-85
2022/04/02 06:25:08;;;;;;;3.17;1.02;;;;;;;8.65;46.78;99254.47;4991453;28;20108;-84
2022/04/02 06:27:42;;;;;;;2.25;1.10;;;;;;;9.41;46.33;99393.16;5000812;28;20046;-84
2022/04/02 06:30:12;;;;;;;1.27;0.70;;;;;;;9.73;45.62;99452.59;5000687;28;20104;-84
2022/04/02 06:32:39;;;;;;;3.45;1.33;;;;;;;9.67;46.07;99437.34;4984517;28;20156;-84
2022/04/02 06:35:06;;;;;;;1.48;0.90;;;;;;;9.85;44.91;99419.50;4985047;28;20081;-84
2022/04/02 06:37:38;;;;;;;4.90;1.30;;;;;;;9.96;46.10;99453.69;4984348;28;20538;-83
2022/04/02 06:40:11;;;;;;;3.13;1.08;;;;;;;9.91;45.21;99428.66;5009567;28;20140;-84
2022/04/02 06:42:38;;;;;;;1.98;0.90;;;;;;;9.99;46.03;99448.06;5003853;28;20136;-83
2022/04/02 06:45:07;;;;;;;2.47;1.30;;;;;;;10.03;45.42;99441.44;5004352;28;20373;-83
2022/04/02 06:47:34;;;;;;;2.97;1.05;;;;;;;9.86;46.09;99421.19;5003819;28;20072;-83
2022/04/02 06:50:04;;;;;;;2.90;0.80;;;;;;;9.96;45.70;99443.06;5020069;28;20085;-84
2022/04/02 06:52:32;;;;;;;1.83;1.10;;;;;;;9.92;45.61;99457.63;5020056;28;20129;-83
2022/04/02 06:54:59;;;;;;;0.95;0.82;;;;;;;9.05;45.02;99287.41;5019937;28;20100;-83
2022/04/02 06:57:25;;;;;;;1.63;1.05;;;;;;;9.39;45.22;99366.00;5004146;28;20139;-84
2022/04/02 06:59:52;;;;;;;1.27;0.98;;;;;;;8.97;44.90;99325.25;5008500;28;20508;-83
2022/04/02 07:02:20;;;;;;;5.70;1.23;;;;;;;9.62;45.60;99414.78;5000311;28;20057;-85
2022/04/02 07:04:47;;;;;;;1.80;0.82;;;;;;;9.95;45.52;99457.34;4984045;28;20499;-84
2022/04/02 07:07:13;;;;;;;2.60;1.10;;;;;;;10.05;45.35;99478.41;4983997;28;20602;-84
2022/04/02 07:09:40;;;;;;;1.98;0.85;;;;;;;8.94;45.46;99311.50;4983265;28;20042;-85
2022/04/02 07:12:07;;;;;;;1.45;0.90;;;;;;;9.48;45.95;99402.13;5001343;28;20058;-85
2022/04/02 07:14:34;;;;;;;2.88;1.00;;;;;;;9.91;46.12;99466.59;5016108;28;20053;-84
2022/04/02 07:17:01;;;;;;;1.15;1.05;;;;;;;9.86;45.68;99466.25;4987950;28;20145;-84
2022/04/02 07:19:30;;;;;;;3.05;1.20;;;;;;;9.67;46.27;99442.63;4984958;28;20585;-85
2022/04/02 07:21:57;;;;;;;1.85;0.82;;;;;;;9.79;46.37;99478.47;4984799;28;20142;-85
2022/04/02 07:24:24;;;;;;;5.10;1.02;;;;;;;9.70;46.54;99480.22;4984320;28;20120;-84
2022/04/02 07:26:54;;;;;;;1.95;1.05;;;;;;;8.47;46.32;99269.53;5000804;28;20046;-83
2022/04/02 07:29:24;;;;;;;2.78;1.55;;;;;;;9.01;46.63;99362.84;4965448;28;20525;-83
2022/04/02 07:31:51;;;;;;;4.78;1.02;;;;;;;8.98;47.16;99357.84;4972524;28;20076;-84
2022/04/02 07:34:20;;;;;;;2.97;1.02;;;;;;;9.96;47.00;99501.41;4986689;28;20671;-83
2022/04/02 07:37:05;;;;;;;1.75;1.23;;;;;;;9.65;46.29;99445.44;4985693;28;20302;-83
2022/04/02 07:40:11;;;;;;;3.03;0.98;;;;;;;10.09;46.60;99505.44;4984456;28;20078;-84
2022/04/02 07:43:05;;;;;;;2.08;1.00;;;;;;;10.03;45.96;99504.25;4955317;28;20153;-85
2022/04/02 07:45:39;;;;;;;5.43;1.10;;;;;;;9.90;46.13;99464.91;4985098;28;20468;-83
2022/04/02 07:48:08;;;;;;;0.93;0.90;;;;;;;10.09;46.38;99506.25;4987183;28;20070;-85
2022/04/02 07:50:40;;;;;;;1.98;1.15;;;;;;;9.83;46.76;99455.97;4985266;28;20116;-85
2022/04/02 07:53:11;;;;;;;2.90;1.20;;;;;;;10.14;46.39;99508.44;4986006;28;20105;-84
2022/04/02 07:55:41;;;;;;;2.28;0.98;;;;;;;10.19;46.42;99516.72;4985403;28;20058;-82
2022/04/02 07:58:11;;;;;;;4.68;1.25;;;;;;;10.00;46.34;99473.59;4986099;28;20137;-84
2022/04/02 08:00:39;;;;;;;1.80;1.20;;;;;;;10.15;45.83;99499.50;4984290;28;20487;-82
2022/04/02 08:03:09;;;;;;;1.50;0.85;;;;;;;10.08;45.69;99464.81;4984632;28;20054;-84
2022/04/02 08:05:36;;;;;;;1.55;0.88;;;;;;;10.67;45.26;99520.53;4987089;28;20505;-84
2022/04/02 08:08:06;;;;;;;6.68;1.15;;;;;;;9.78;45.19;99400.78;4987935;28;20061;-84
2022/04/02 08:10:35;;;;;;;2.85;0.95;;;;;;;10.35;45.21;99518.66;4987698;28;20050;-85
2022/04/02 08:13:01;;;;;;;4.10;0.90;;;;;;;10.40;45.96;99530.44;4991152;28;20329;-83
2022/04/02 08:15:28;;;;;;;2.15;1.05;;;;;;;10.32;45.28;99500.41;5008239;28;20488;-84
2022/04/02 08:17:56;;;;;;;2.58;1.10;;;;;;;10.44;45.53;99534.44;5008698;28;20061;-83
2022/04/02 08:20:24;;;;;;;1.27;0.95;;;;;;;10.65;45.31;99546.41;5009659;28;20354;-85
2022/04/02 08:22:51;;;;;;;3.35;1.00;;;;;;;8.99;44.49;99274.81;5025042;28;20293;-85
2022/04/02 08:25:19;;;;;;;3.42;1.10;;;;;;;10.27;44.77;99503.50;5011229;28;20084;-85
2022/04/02 08:27:52;;;;;;;1.90;1.00;;;;;;;10.74;45.08;99553.41;5012199;28;20152;-82
2022/04/02 08:30:28;;;;;;;1.60;0.70;;;;;;;10.90;44.83;99557.94;5009887;28;20571;-83
2022/04/02 08:33:25;;;;;;;3.15;1.40;;;;;;;10.93;45.26;99554.09;5010023;28;20061;-85
2022/04/02 08:36:05;;;;;;;5.95;1.20;;;;;;;11.02;45.53;99555.75;5008671;28;20516;-83
2022/04/02 08:38:32;;;;;;;3.08;1.17;;;;;;;11.10;43.98;99553.13;5008444;28;20050;-84
2022/04/02 08:41:29;;;;;;;5.57;1.55;;;;;;;10.38;43.12;99399.75;4991192;28;20329;-84
2022/04/02 08:44:21;;;;;;;1.77;0.93;;;;;;;11.30;42.33;99554.44;4988406;28;20093;-85
2022/04/02 08:47:07;;;;;;;3.22;1.23;;;;;;;11.29;43.56;99557.28;4990030;28;20654;-82
2022/04/02 08:49:42;;;;;;;2.25;1.00;;;;;;;11.21;43.48;99506.78;4989283;28;20148;-85
2022/04/02 08:52:14;;;;;;;3.47;1.38;;;;;;;11.76;41.58;99562.69;4991095;28;20592;-86
2022/04/02 08:54:57;;;;;;;2.70;1.30;;;;;;;11.69;41.38;99543.09;4991147;28;20078;-85
2022/04/02 08:57:36;;;;;;;1.25;1.15;;;;;;;10.37;41.87;99345.06;4991513;28;20227;-83
2022/04/02 09:00:15;;;;;;;3.15;1.02;;;;;;;11.68;40.98;99519.34;4997857;28;20249;-85
2022/04/02 09:03:01;;;;;;;3.63;1.02;;;;;;;11.34;41.68;99507.94;4997037;28;20519;-84
2022/04/02 09:06:01;;;;;;;2.38;1.08;;;;;;;11.32;42.00;99504.63;4989784;28;20581;-83
2022/04/02 09:09:03;;;;;;;2.55;1.30;;;;;;;11.77;41.82;99551.06;4989077;28;20393;-84
2022/04/02 09:11:47;;;;;;;3.03;1.60;;;;;;;11.45;42.42;99525.34;4989726;28;20054;-84
2022/04/02 09:15:03;;;;;;;3.88;1.02;;;;;;;11.87;42.21;99577.50;5008013;28;20348;-82
2022/04/02 09:18:07;;;;;;;2.33;1.10;;;;;;;11.49;42.07;99520.56;5000568;28;20526;-83
2022/04/02 09:20:57;;;;;;;2.90;1.10;;;;;;;11.93;41.47;99560.03;5009091;28;20050;-83
2022/04/02 09:23:46;;;;;;;2.83;1.17;;;;;;;12.09;41.19;99586.59;5024919;28;20149;-84
2022/04/02 09:26:28;;;;;;;3.08;1.20;;;;;;;10.59;42.02;99348.84;5009477;28;20050;-84
2022/04/02 09:28:55;;;;;;;2.05;1.02;;;;;;;11.77;41.47;99521.81;4999671;28;20129;-84
2022/04/02 09:31:32;;;;;;;4.40;1.70;;;;;;;12.04;41.30;99582.75;4988417;28;20908;-84
2022/04/02 09:34:30;;;;;;;3.85;1.33;;;;;;;12.03;41.98;99581.13;4988235;28;20253;-81
2022/04/02 09:37:03;;;;;;;3.25;1.45;;;;;;;11.95;42.49;99584.63;4988293;28;20548;-84
2022/04/02 09:39:51;;;;;;;3.33;1.40;;;;;;;12.08;40.81;99587.56;4987876;28;20046;-84
2022/04/02 09:42:44;;;;;;;4.03;1.10;;;;;;;12.00;40.36;99582.28;4988394;28;20145;-84
2022/04/02 09:45:17;;;;;;;1.92;0.95;;;;;;;11.61;40.22;99548.44;4988732;28;20089;-84
2022/04/02 09:48:16;;;;;;;1.30;1.00;;;;;;;11.73;40.65;99564.88;4990430;28;20080;-84
2022/04/02 09:50:45;;;;;;;2.80;1.45;;;;;;;11.87;42.00;99592.59;4989859;28;20120;-85
2022/04/02 09:53:23;;;;;;;1.75;0.95;;;;;;;12.17;41.70;99583.91;4988483;28;20403;-85
2022/04/02 09:55:58;;;;;;;3.92;1.05;;;;;;;11.95;40.82;99510.16;4988098;28;20531;-85
2022/04/02 09:58:47;;;;;;;3.42;1.10;;;;;;;12.18;39.46;99491.59;4989939;28;20089;-84
2022/04/02 10:01:22;;;;;;;3.38;1.10;;;;;;;12.76;39.39;99575.47;4989135;28;20112;-85
2022/04/02 10:03:52;;;;;;;3.67;1.30;;;;;;;12.66;39.71;99577.53;4994348;28;20417;-83
2022/04/02 10:06:25;;;;;;;2.45;1.33;;;;;;;12.30;39.84;99540.75;4985917;28;20050;-85
2022/04/02 10:09:05;;;;;;;5.82;1.30;;;;;;;12.18;39.92;99500.44;4987781;28;20060;-85
2022/04/02 10:11:34;;;;;;;4.70;1.63;;;;;;;11.48;40.16;99370.03;4987740;28;20050;-84
2022/04/02 10:14:03;;;;;;;2.65;1.02;;;;;;;13.02;39.85;99572.47;4997632;28;20054;-85
2022/04/02 10:16:31;;;;;;;1.65;1.10;;;;;;;13.25;40.11;99576.97;5006987;28;20144;-85
2022/04/02 10:19:00;;;;;;;1.85;1.20;;;;;;;13.14;39.57;99540.09;5023477;28;20496;-85
2022/04/02 10:21:30;;;;;;;2.05;1.20;;;;;;;13.41;38.60;99570.72;5006836;28;20175;-85
2022/04/02 10:24:21;;;;;;;6.32;1.80;;;;;;;13.33;38.59;99542.28;5006805;28;20046;-86
2022/04/02 10:26:56;;;;;;;1.80;0.93;;;;;;;13.10;37.86;99504.13;4996147;28;20480;-84
2022/04/02 10:29:34;;;;;;;2.22;1.35;;;;;;;13.16;37.88;99551.41;5023148;28;20351;-85
2022/04/02 10:32:19;;;;;;;3.50;1.00;;;;;;;13.17;38.42;99579.69;5006283;28;20244;-84
2022/04/02 10:34:52;;;;;;;1.52;1.17;;;;;;;13.19;38.70;99583.84;5006948;28;20389;-84
2022/04/02 10:37:25;;;;;;;2.42;1.50;;;;;;;12.89;38.74;99561.59;5028957;28;20073;-85
2022/04/02 10:40:03;;;;;;;2.10;1.35;;;;;;;12.89;38.78;99555.41;5005142;28;20073;-84
2022/04/02 10:42:40;;;;;;;4.47;1.65;;;;;;;13.02;38.23;99583.13;4987176;28;20100;-84
2022/04/02 10:45:08;;;;;;;7.60;1.30;;;;;;;12.92;38.57;99592.38;4987446;28;20114;-86
2022/04/02 10:47:41;;;;;;;2.20;1.35;;;;;;;12.33;38.91;99523.63;4986239;28;20062;-84
2022/04/02 10:50:09;;;;;;;3.28;1.30;;;;;;;12.78;39.20;99600.09;4987423;28;20141;-85
2022/04/02 10:52:36;;;;;;;2.35;1.38;;;;;;;12.07;40.85;99503.47;4986397;28;20137;-85
2022/04/02 10:55:04;;;;;;;6.22;1.52;;;;;;;12.39;43.65;99577.00;4986145;28;20062;-86
2022/04/02 10:57:32;;;;;;;1.42;1.02;;;;;;;11.95;43.11;99510.16;4986632;28;20098;-84
2022/04/02 11:00:08;;;;;;;2.35;1.63;;;;;;;12.27;49.10;99610.31;4986017;28;20531;-83
2022/04/02 11:02:50;;;;;;;4.15;1.58;;;;;;;12.22;47.95;99595.88;4986087;28;20054;-85
2022/04/02 11:05:17;;;;;;;6.25;1.92;;;;;;;11.87;54.52;99619.19;4986567;28;20050;-85
2022/04/02 11:07:48;;;;;;;5.80;1.60;;;;;;;11.16;51.69;99501.97;4986065;28;20081;-83
2022/04/02 11:10:17;;;;;;;1.88;1.08;;;;;;;11.21;52.81;99543.97;4986459;28;20144;-84
2022/04/02 11:12:48;;;;;;;2.45;1.42;;;;;;;11.70;52.66;99619.22;4986054;28;20135;-82
2022/04/02 11:15:22;;;;;;;2.53;1.45;;;;;;;11.54;54.96;99582.00;4967031;28;20046;-84
2022/04/02 11:17:54;;;;;;;2.28;1.67;;;;;;;11.61;54.29;99574.19;4966645;28;20142;-85
2022/04/02 11:20:21;;;;;;;2.95;1.58;;;;;;;10.90;53.29;99447.22;4990688;28;20054;-83
2022/04/02 11:23:02;;;;;;;4.10;1.63;;;;;;;10.64;49.81;99404.91;4985675;28;20562;-84
2022/04/02 11:25:29;;;;;;;2.35;1.50;;;;;;;11.57;52.47;99541.78;4985889;28;20157;-85
2022/04/02 11:27:58;;;;;;;5.47;2.35;;;;;;;10.70;49.22;99376.88;4985271;28;20085;-83
2022/04/02 11:30:30;;;;;;;2.15;1.45;;;;;;;11.44;49.57;99486.50;4986819;28;20054;-84
2022/04/02 11:33:18;;;;;;;2.00;1.70;;;;;;;12.12;46.20;99596.88;4985839;28;20047;-84
2022/04/02 11:36:07;;;;;;;3.22;1.48;;;;;;;11.88;48.33;99568.53;5002317;28;20457;-86
2022/04/02 11:38:49;;;;;;;1.88;1.20;;;;;;;11.95;51.53;99581.97;4985715;28;20136;-83
2022/04/02 11:41:27;;;;;;;2.20;1.52;;;;;;;11.46;47.80;99489.81;4972015;28;20527;-84
2022/04/02 11:44:07;;;;;;;1.98;1.20;;;;;;;12.04;44.52;99593.41;4970168;28;20065;-82
2022/04/02 11:46:52;;;;;;;1.65;1.27;;;;;;;12.09;45.58;99602.56;4969725;28;20129;-84
2022/04/02 11:49:40;;;;;;;3.60;1.08;;;;;;;12.01;47.25;99589.25;4970385;28;20184;-83
2022/04/02 11:52:12;;;;;;;2.67;1.17;;;;;;;11.91;47.30;99585.97;4970505;28;20051;-84
2022/04/02 11:54:59;;;;;;;;;;;;;;;12.07;44.91;99603.72;4970029;28;20117;-84
2022/04/02 11:57:26;;;;;;;2.22;1.50;;;;;;;12.05;43.47;99587.94;4969445;28;20154;-85